createdAt,value
2022-08-19T00:00:51.078Z,0.00
2022-08-19T00:01:53.199Z,0.00
2022-08-19T00:02:51.244Z,0.00
2022-08-19T00:03:51.064Z,0.00
2022-08-19T00:04:51.087Z,0.00
2022-08-19T00:05:51.013Z,0.00
2022-08-19T00:06:51.013Z,0.00
2022-08-19T00:07:51.000Z,0.00
2022-08-19T00:08:51.097Z,0.00
2022-08-19T00:09:50.972Z,0.00
2022-08-19T00:10:50.962Z,0.00
2022-08-19T00:11:50.953Z,0.00
2022-08-19T00:12:51.056Z,0.00
2022-08-19T00:13:50.951Z,0.00
2022-08-19T00:14:50.957Z,0.00
2022-08-19T00:15:50.907Z,0.00
2022-08-19T00:16:50.899Z,0.00
2022-08-19T00:17:50.920Z,0.00
2022-08-19T00:18:50.891Z,0.00
2022-08-19T00:19:50.883Z,0.00
2022-08-19T00:20:50.861Z,0.00
2022-08-19T00:21:50.850Z,0.00
2022-08-19T00:22:50.954Z,0.00
2022-08-19T00:23:50.822Z,0.00
2022-08-19T00:24:51.139Z,0.00
2022-08-19T00:25:50.924Z,0.00
2022-08-19T00:26:50.788Z,0.00
2022-08-19T00:27:50.778Z,0.00
2022-08-19T00:28:50.772Z,0.00
2022-08-19T00:29:52.315Z,0.00
2022-08-19T00:30:50.743Z,0.00
2022-08-19T00:31:50.851Z,0.00
2022-08-19T00:32:50.724Z,0.00
2022-08-19T00:33:50.713Z,0.00
2022-08-19T00:34:50.717Z,0.00
2022-08-19T00:35:56.275Z,0.00
2022-08-19T00:36:51.686Z,0.00
2022-08-19T00:37:50.662Z,0.00
2022-08-19T00:38:50.655Z,0.00
2022-08-19T00:39:50.712Z,0.00
2022-08-19T00:40:50.634Z,0.00
2022-08-19T00:41:50.625Z,0.00
2022-08-19T00:42:50.768Z,0.00
2022-08-19T00:43:50.605Z,0.00
2022-08-19T00:44:50.610Z,0.00
2022-08-19T00:45:50.612Z,0.00
2022-08-19T00:46:57.716Z,0.00
2022-08-19T00:47:51.551Z,0.00
2022-08-19T00:48:50.915Z,0.00
2022-08-19T00:49:50.537Z,0.00
2022-08-19T00:50:51.816Z,0.00
2022-08-19T00:51:50.513Z,0.00
2022-08-19T00:52:50.509Z,0.00
2022-08-19T00:53:50.489Z,0.00
2022-08-19T00:54:52.680Z,0.00
2022-08-19T00:55:51.320Z,0.00
2022-08-19T00:56:50.461Z,0.00
2022-08-19T00:57:50.443Z,0.00
2022-08-19T00:58:50.437Z,0.00
2022-08-19T01:00:00.880Z,0.00
2022-08-19T01:00:51.426Z,0.00
2022-08-19T01:01:50.723Z,0.00
2022-08-19T01:02:50.394Z,0.00
2022-08-19T01:03:57.599Z,0.00
2022-08-19T01:04:51.380Z,0.00
2022-08-19T01:05:50.723Z,0.00
2022-08-19T01:06:50.346Z,0.00
2022-08-19T01:07:50.334Z,0.00
2022-08-19T01:08:50.410Z,0.00
2022-08-19T01:09:50.332Z,0.00
2022-08-19T01:10:50.305Z,0.00
2022-08-19T01:11:50.299Z,0.00
2022-08-19T01:12:50.276Z,0.00
2022-08-19T01:13:50.461Z,0.00
2022-08-19T01:14:50.266Z,0.00
2022-08-19T01:15:50.299Z,0.00
2022-08-19T01:16:50.236Z,0.00
2022-08-19T01:17:50.223Z,0.00
2022-08-19T01:18:50.223Z,0.00
2022-08-19T01:19:50.223Z,0.00
2022-08-19T01:20:50.210Z,0.00
2022-08-19T01:21:50.178Z,0.00
2022-08-19T01:22:50.171Z,0.00
2022-08-19T01:23:50.160Z,0.00
2022-08-19T01:24:50.241Z,0.00
2022-08-19T01:25:50.159Z,0.00
2022-08-19T01:26:50.131Z,0.00
2022-08-19T01:27:50.118Z,0.00
2022-08-19T01:28:50.103Z,0.00
2022-08-19T01:29:50.097Z,0.00
2022-08-19T01:30:51.038Z,0.00
2022-08-19T01:31:50.070Z,0.00
2022-08-19T01:32:50.062Z,0.00
2022-08-19T01:33:50.046Z,0.00
2022-08-19T01:34:50.037Z,0.00
2022-08-19T01:35:50.074Z,0.00
2022-08-19T01:36:50.030Z,0.00
2022-08-19T01:37:50.001Z,0.00
2022-08-19T01:38:50.031Z,0.00
2022-08-19T01:39:50.138Z,0.00
2022-08-19T01:40:49.969Z,0.00
2022-08-19T01:41:50.260Z,0.00
2022-08-19T01:42:49.949Z,0.00
2022-08-19T01:44:09.950Z,0.00
2022-08-19T01:44:50.919Z,0.00
2022-08-19T01:45:49.914Z,0.00
2022-08-19T01:46:49.932Z,0.00
2022-08-19T01:47:55.533Z,0.00
2022-08-19T01:48:50.878Z,0.00
2022-08-19T01:49:49.870Z,0.00
2022-08-19T01:50:49.862Z,0.00
2022-08-19T01:51:49.864Z,0.00
2022-08-19T01:52:49.928Z,0.00
2022-08-19T01:53:50.819Z,0.00
2022-08-19T01:54:49.810Z,0.00
2022-08-19T01:55:49.797Z,0.00
2022-08-19T01:56:50.166Z,0.00
2022-08-19T01:57:49.774Z,0.00
2022-08-19T01:58:49.787Z,0.00
2022-08-19T01:59:49.777Z,0.00
2022-08-19T02:00:49.761Z,0.00
2022-08-19T02:01:49.774Z,0.00
2022-08-19T02:02:49.903Z,0.00
2022-08-19T02:03:49.736Z,0.00
2022-08-19T02:04:49.722Z,0.00
2022-08-19T02:05:49.710Z,0.00
2022-08-19T02:06:49.706Z,0.00
2022-08-19T02:07:49.663Z,0.00
2022-08-19T02:08:49.669Z,0.00
2022-08-19T02:09:49.709Z,0.00
2022-08-19T02:10:49.635Z,0.00
2022-08-19T02:11:49.619Z,0.00
2022-08-19T02:12:49.737Z,0.00
2022-08-19T02:13:49.823Z,0.00
2022-08-19T02:14:49.590Z,0.00
2022-08-19T02:15:49.910Z,0.00
2022-08-19T02:16:49.568Z,0.00
2022-08-19T02:17:49.552Z,0.00
2022-08-19T02:18:49.555Z,0.00
2022-08-19T02:19:49.526Z,0.00
2022-08-19T02:20:49.528Z,0.00
2022-08-19T02:21:49.525Z,0.00
2022-08-19T02:22:49.706Z,0.00
2022-08-19T02:23:49.522Z,0.00
2022-08-19T02:24:49.470Z,0.00
2022-08-19T02:25:49.458Z,0.00
2022-08-19T02:26:49.450Z,0.00
2022-08-19T02:27:49.439Z,0.00
2022-08-19T02:28:49.425Z,0.00
2022-08-19T02:29:49.435Z,0.00
2022-08-19T02:30:49.518Z,0.00
2022-08-19T02:31:49.387Z,0.00
2022-08-19T02:32:49.381Z,0.00
2022-08-19T02:33:49.374Z,0.00
2022-08-19T02:34:49.374Z,0.00
2022-08-19T02:35:49.410Z,0.00
2022-08-19T02:36:52.031Z,0.00
2022-08-19T02:37:49.327Z,0.00
2022-08-19T02:38:54.930Z,0.00
2022-08-19T02:39:50.396Z,0.00
2022-08-19T02:40:49.289Z,0.00
2022-08-19T02:41:49.278Z,0.00
2022-08-19T02:42:49.285Z,0.00
2022-08-19T02:44:29.033Z,0.00
2022-08-19T02:44:50.248Z,0.00
2022-08-19T02:45:49.275Z,0.00
2022-08-19T02:47:42.354Z,0.00
2022-08-19T02:48:42.327Z,0.00
2022-08-19T02:49:42.316Z,0.00
2022-08-19T02:50:51.991Z,0.00
2022-08-19T02:51:43.291Z,0.00
2022-08-19T02:52:42.280Z,0.00
2022-08-19T02:53:43.017Z,0.00
2022-08-19T02:54:42.262Z,0.00
2022-08-19T02:55:46.327Z,0.00
2022-08-19T02:56:42.235Z,0.00
2022-08-19T02:57:42.254Z,0.00
2022-08-19T02:58:42.215Z,0.00
2022-08-19T02:59:42.205Z,0.00
2022-08-19T03:00:42.246Z,0.00
2022-08-19T03:01:42.445Z,0.00
2022-08-19T03:02:42.193Z,0.00
2022-08-19T03:03:42.158Z,0.00
2022-08-19T03:04:42.350Z,0.00
2022-08-19T03:05:48.047Z,0.00
2022-08-19T03:06:43.124Z,0.00
2022-08-19T03:07:42.117Z,0.00
2022-08-19T03:08:42.307Z,0.00
2022-08-19T03:09:42.096Z,0.00
2022-08-19T03:10:43.020Z,0.00
2022-08-19T03:11:42.074Z,0.00
2022-08-19T03:12:42.079Z,0.00
2022-08-19T03:13:42.051Z,0.00
2022-08-19T03:14:42.036Z,0.00
2022-08-19T03:15:42.027Z,0.00
2022-08-19T03:16:42.032Z,0.00
2022-08-19T03:17:42.030Z,0.00
2022-08-19T03:18:41.992Z,0.00
2022-08-19T03:19:41.978Z,0.00
2022-08-19T03:20:41.983Z,0.00
2022-08-19T03:21:41.959Z,0.00
2022-08-19T03:22:41.975Z,0.00
2022-08-19T03:23:41.954Z,4.00
2022-08-19T03:24:41.929Z,4.00
2022-08-19T03:25:42.140Z,0.00
2022-08-19T03:26:41.932Z,4.00
2022-08-19T03:27:41.897Z,4.00
2022-08-19T03:28:41.882Z,8.00
2022-08-19T03:29:44.067Z,4.00
2022-08-19T03:30:41.860Z,8.00
2022-08-19T03:31:51.016Z,4.00
2022-08-19T03:32:45.514Z,8.00
2022-08-19T03:33:41.846Z,12.00
2022-08-19T03:34:41.818Z,12.00
2022-08-19T03:35:41.830Z,12.00
2022-08-19T03:36:41.833Z,16.00
2022-08-19T03:37:41.801Z,16.00
2022-08-19T03:38:41.773Z,20.00
2022-08-19T03:39:41.799Z,20.00
2022-08-19T03:40:41.879Z,28.00
2022-08-19T03:41:45.027Z,32.00
2022-08-19T03:42:49.095Z,36.00
2022-08-19T03:43:42.741Z,36.00
2022-08-19T03:44:41.711Z,44.00
2022-08-19T03:45:41.721Z,48.00
2022-08-19T03:46:42.365Z,56.00
2022-08-19T03:47:41.676Z,56.00
2022-08-19T03:48:41.681Z,60.00
2022-08-19T03:49:41.652Z,60.00
2022-08-19T03:50:41.642Z,60.00
2022-08-19T03:51:41.633Z,60.00
2022-08-19T03:52:45.433Z,64.00
2022-08-19T03:53:42.638Z,64.00
2022-08-19T03:54:41.595Z,64.00
2022-08-19T03:55:41.586Z,72.00
2022-08-19T03:56:41.572Z,80.00
2022-08-19T03:57:41.612Z,84.00
2022-08-19T03:58:41.567Z,96.00
2022-08-19T03:59:41.906Z,104.00
2022-08-19T04:00:41.534Z,116.00
2022-08-19T04:01:41.551Z,124.00
2022-08-19T04:02:41.511Z,136.00
2022-08-19T04:03:41.524Z,144.00
2022-08-19T04:04:41.486Z,160.00
2022-08-19T04:05:41.480Z,168.00
2022-08-19T04:06:41.468Z,184.00
2022-08-19T04:07:41.453Z,196.00
2022-08-19T04:08:42.078Z,216.00
2022-08-19T04:09:41.433Z,228.00
2022-08-19T04:10:41.429Z,248.00
2022-08-19T04:11:43.882Z,264.00
2022-08-19T04:12:41.406Z,292.00
2022-08-19T04:13:41.411Z,328.00
2022-08-19T04:14:41.410Z,360.00
2022-08-19T04:15:41.366Z,396.00
2022-08-19T04:16:41.354Z,436.00
2022-08-19T04:17:41.372Z,472.00
2022-08-19T04:18:41.350Z,512.00
2022-08-19T04:19:41.318Z,556.00
2022-08-19T04:20:41.309Z,604.00
2022-08-19T04:21:41.335Z,668.00
2022-08-19T04:22:41.327Z,748.00
2022-08-19T04:23:45.471Z,844.00
2022-08-19T04:24:42.262Z,964.00
2022-08-19T04:25:41.249Z,1088.00
2022-08-19T04:26:41.242Z,1216.00
2022-08-19T04:27:41.292Z,1356.00
2022-08-19T04:28:41.238Z,1500.00
2022-08-19T04:29:41.211Z,1656.00
2022-08-19T04:30:41.203Z,1796.00
2022-08-19T04:31:41.194Z,1892.00
2022-08-19T04:32:41.180Z,1928.00
2022-08-19T04:33:41.223Z,1856.00
2022-08-19T04:35:03.026Z,1744.00
2022-08-19T04:35:42.144Z,1764.00
2022-08-19T04:36:41.133Z,1848.00
2022-08-19T04:37:41.121Z,1876.00
2022-08-19T04:38:41.117Z,1916.00
2022-08-19T04:39:41.191Z,1984.00
2022-08-19T04:40:41.391Z,2132.00
2022-08-19T04:41:41.078Z,2324.00
2022-08-19T04:42:41.071Z,2536.00
2022-08-19T04:43:41.075Z,2720.00
2022-08-19T04:44:46.033Z,2872.00
2022-08-19T04:45:43.678Z,3024.00
2022-08-19T04:46:51.545Z,3196.00
2022-08-19T04:47:49.419Z,3400.00
2022-08-19T04:48:44.913Z,3612.00
2022-08-19T04:49:41.987Z,3796.00
2022-08-19T04:50:40.979Z,3884.00
2022-08-19T04:51:40.969Z,3916.00
2022-08-19T04:52:40.957Z,3932.00
2022-08-19T04:53:40.959Z,3920.00
2022-08-19T04:54:40.953Z,3916.00
2022-08-19T04:55:40.924Z,3900.00
2022-08-19T04:56:40.940Z,3872.00
2022-08-19T04:57:41.579Z,3856.00
2022-08-19T04:58:40.925Z,3876.00
2022-08-19T04:59:40.902Z,3900.00
2022-08-19T05:00:41.088Z,3620.00
2022-08-19T05:01:40.886Z,3624.00
2022-08-19T05:02:40.840Z,3600.00
2022-08-19T05:03:41.127Z,3548.00
2022-08-19T05:04:40.834Z,3508.00
2022-08-19T05:05:45.234Z,3476.00
2022-08-19T05:06:40.796Z,3472.00
2022-08-19T05:07:40.786Z,3528.00
2022-08-19T05:08:40.776Z,3576.00
2022-08-19T05:09:57.556Z,3620.00
2022-08-19T05:10:41.765Z,3632.00
2022-08-19T05:11:40.744Z,3644.00
2022-08-19T05:12:40.729Z,3692.00
2022-08-19T05:13:40.748Z,3772.00
2022-08-19T05:14:40.706Z,3860.00
2022-08-19T05:15:40.703Z,3964.00
2022-08-19T05:16:40.829Z,4036.00
2022-08-19T05:17:40.709Z,4164.00
2022-08-19T05:18:40.683Z,4288.00
2022-08-19T05:19:40.654Z,4388.00
2022-08-19T05:20:40.885Z,4496.00
2022-08-19T05:21:40.650Z,4632.00
2022-08-19T05:22:40.615Z,4768.00
2022-08-19T05:23:40.602Z,4928.00
2022-08-19T05:24:56.410Z,4952.00
2022-08-19T05:25:41.598Z,5056.00
2022-08-19T05:26:40.590Z,5168.00
2022-08-19T05:27:40.566Z,5264.00
2022-08-19T05:28:40.562Z,5356.00
2022-08-19T05:29:40.536Z,5456.00
2022-08-19T05:30:47.140Z,5560.00
2022-08-19T05:31:41.700Z,5652.00
2022-08-19T05:32:40.515Z,5712.00
2022-08-19T05:33:40.494Z,5716.00
2022-08-19T05:34:40.489Z,5756.00
2022-08-19T05:35:40.510Z,5900.00
2022-08-19T05:36:40.458Z,6252.00
2022-08-19T05:37:40.790Z,7248.00
2022-08-19T05:38:40.436Z,7612.00
2022-08-19T05:39:40.434Z,8064.00
2022-08-19T05:40:40.413Z,8316.00
2022-08-19T05:41:40.424Z,8592.00
2022-08-19T05:42:40.390Z,8840.00
2022-08-19T05:43:40.382Z,9060.00
2022-08-19T05:44:40.373Z,9128.00
2022-08-19T05:45:40.376Z,9376.00
2022-08-19T05:46:40.346Z,9536.00
2022-08-19T05:47:40.649Z,9520.00
2022-08-19T05:48:40.366Z,9276.00
2022-08-19T05:49:40.317Z,9084.00
2022-08-19T05:50:40.320Z,9100.00
2022-08-19T05:51:40.292Z,9292.00
2022-08-19T05:52:45.913Z,9400.00
2022-08-19T05:53:41.267Z,9416.00
2022-08-19T05:54:40.302Z,9352.00
2022-08-19T05:55:40.301Z,9224.00
2022-08-19T05:56:40.235Z,9024.00
2022-08-19T05:57:40.229Z,8732.00
2022-08-19T05:58:40.213Z,8352.00
2022-08-19T05:59:40.203Z,7976.00
2022-08-19T06:00:40.197Z,7612.00
2022-08-19T06:01:40.210Z,7312.00
2022-08-19T06:02:40.184Z,7108.00
2022-08-19T06:03:40.169Z,6976.00
2022-08-19T06:04:40.169Z,6812.00
2022-08-19T06:05:46.247Z,6612.00
2022-08-19T06:06:41.126Z,6436.00
2022-08-19T06:07:40.120Z,6348.00
2022-08-19T06:08:40.104Z,6348.00
2022-08-19T06:09:40.098Z,6412.00
2022-08-19T06:10:40.120Z,6484.00
2022-08-19T06:11:40.086Z,6564.00
2022-08-19T06:12:40.067Z,6624.00
2022-08-19T06:13:40.047Z,6704.00
2022-08-19T06:14:41.873Z,6864.00
2022-08-19T06:15:40.047Z,7132.00
2022-08-19T06:16:40.101Z,7488.00
2022-08-19T06:17:40.008Z,7896.00
2022-08-19T06:18:40.003Z,8328.00
2022-08-19T06:19:40.739Z,8724.00
2022-08-19T06:20:55.104Z,9072.00
2022-08-19T06:21:40.981Z,9336.00
2022-08-19T06:22:39.952Z,9528.00
2022-08-19T06:23:39.950Z,9632.00
2022-08-19T06:24:39.937Z,9620.00
2022-08-19T06:25:39.916Z,9576.00
2022-08-19T06:26:40.085Z,9580.00
2022-08-19T06:27:53.041Z,9676.00
2022-08-19T06:28:40.882Z,9620.00
2022-08-19T06:29:40.679Z,9640.00
2022-08-19T06:30:39.879Z,9848.00
2022-08-19T06:31:39.873Z,10208.00
2022-08-19T06:32:42.778Z,10612.00
2022-08-19T06:33:39.857Z,10964.00
2022-08-19T06:34:39.829Z,11108.00
2022-08-19T06:35:39.891Z,10968.00
2022-08-19T06:36:39.817Z,10712.00
2022-08-19T06:37:43.693Z,10552.00
2022-08-19T06:38:39.774Z,10536.00
2022-08-19T06:39:39.817Z,10640.00
2022-08-19T06:40:39.819Z,10724.00
2022-08-19T06:41:43.632Z,10712.00
2022-08-19T06:42:43.285Z,10540.00
2022-08-19T06:43:41.244Z,10264.00
2022-08-19T06:44:42.796Z,9760.00
2022-08-19T06:45:39.940Z,9248.00
2022-08-19T06:46:39.705Z,8740.00
2022-08-19T06:47:39.677Z,8296.00
2022-08-19T06:48:39.662Z,7944.00
2022-08-19T06:49:40.829Z,7648.00
2022-08-19T06:50:39.852Z,7408.00
2022-08-19T06:51:42.701Z,7336.00
2022-08-19T06:52:39.621Z,7456.00
2022-08-19T06:53:39.668Z,7644.00
2022-08-19T06:54:56.095Z,7776.00
2022-08-19T06:55:40.586Z,7864.00
2022-08-19T06:56:39.768Z,7876.00
2022-08-19T06:57:39.563Z,7864.00
2022-08-19T06:58:39.550Z,7904.00
2022-08-19T06:59:39.540Z,7972.00
2022-08-19T07:00:39.641Z,8080.00
2022-08-19T07:01:39.538Z,8272.00
2022-08-19T07:02:40.060Z,8416.00
2022-08-19T07:03:39.684Z,8396.00
2022-08-19T07:04:42.077Z,8408.00
2022-08-19T07:05:39.512Z,8256.00
2022-08-19T07:06:43.287Z,7672.00
2022-08-19T07:07:40.474Z,7060.00
2022-08-19T07:09:39.431Z,6572.00
2022-08-19T07:10:42.800Z,6412.00
2022-08-19T07:11:39.661Z,6512.00
2022-08-19T07:12:39.405Z,6672.00
2022-08-19T07:13:39.386Z,6952.00
2022-08-19T07:14:39.396Z,7300.00
2022-08-19T07:15:39.899Z,7684.00
2022-08-19T07:16:42.881Z,8116.00
2022-08-19T07:17:39.701Z,8180.00
2022-08-19T07:18:39.338Z,8620.00
2022-08-19T07:19:39.319Z,9020.00
2022-08-19T07:20:39.341Z,9160.00
2022-08-19T07:21:39.305Z,9232.00
2022-08-19T07:22:39.289Z,9192.00
2022-08-19T07:23:39.280Z,9176.00
2022-08-19T07:24:39.263Z,9200.00
2022-08-19T07:25:40.274Z,9132.00
2022-08-19T07:26:39.245Z,9148.00
2022-08-19T07:27:39.589Z,9176.00
2022-08-19T07:28:40.127Z,9260.00
2022-08-19T07:29:40.210Z,9364.00
2022-08-19T07:30:39.219Z,9468.00
2022-08-19T07:31:39.356Z,9524.00
2022-08-19T07:32:39.183Z,9452.00
2022-08-19T07:33:39.164Z,9188.00
2022-08-19T07:34:40.063Z,8740.00
2022-08-19T07:35:39.158Z,8212.00
2022-08-19T07:36:40.133Z,7744.00
2022-08-19T07:37:39.120Z,7508.00
2022-08-19T07:38:39.113Z,7372.00
2022-08-19T07:39:39.148Z,7384.00
2022-08-19T07:40:39.108Z,7344.00
2022-08-19T07:41:39.078Z,7420.00
2022-08-19T07:42:39.067Z,7704.00
2022-08-19T07:43:39.060Z,7692.00
2022-08-19T07:45:39.149Z,7120.00
2022-08-19T07:46:39.030Z,7324.00
2022-08-19T07:47:49.930Z,6920.00
2022-08-19T07:48:40.005Z,6840.00
2022-08-19T07:49:39.025Z,6828.00
2022-08-19T07:50:38.976Z,6148.00
2022-08-19T07:51:39.630Z,6212.00
2022-08-19T07:52:38.954Z,6284.00
2022-08-19T07:53:39.934Z,5772.00
2022-08-19T07:54:38.947Z,6108.00
2022-08-19T07:55:40.659Z,6360.00
2022-08-19T07:56:38.909Z,5780.00
2022-08-19T07:57:38.955Z,6504.00
2022-08-19T07:58:38.890Z,7432.00
2022-08-19T07:59:38.878Z,6468.00
2022-08-19T08:00:38.888Z,7100.00
2022-08-19T08:01:41.908Z,7328.00
2022-08-19T08:02:38.854Z,8136.00
2022-08-19T08:03:38.832Z,6824.00
2022-08-19T08:04:38.832Z,7568.00
2022-08-19T08:05:43.011Z,8224.00
2022-08-19T08:06:38.872Z,9552.00
2022-08-19T08:07:38.795Z,9604.00
2022-08-19T08:08:44.181Z,11604.00
2022-08-19T08:09:39.768Z,11220.00
2022-08-19T08:10:38.761Z,10776.00
2022-08-19T08:11:38.798Z,9380.00
2022-08-19T08:12:38.738Z,8728.00
2022-08-19T08:13:39.006Z,8356.00
2022-08-19T08:14:38.712Z,9272.00
2022-08-19T08:15:43.094Z,8432.00
2022-08-19T08:16:39.661Z,8012.00
2022-08-19T08:17:49.096Z,7480.00
2022-08-19T08:18:39.682Z,7856.00
2022-08-19T08:19:38.660Z,8792.00
2022-08-19T08:20:38.650Z,9248.00
2022-08-19T08:22:38.647Z,9940.00
2022-08-19T08:23:39.752Z,10532.00
2022-08-19T08:24:38.606Z,12108.00
2022-08-19T08:25:38.599Z,13556.00
2022-08-19T08:26:38.580Z,14312.00
2022-08-19T08:27:39.591Z,15524.00
2022-08-19T08:28:38.564Z,16992.00
2022-08-19T08:29:38.555Z,19168.00
2022-08-19T08:30:38.553Z,21792.00
2022-08-19T08:31:38.527Z,25056.00
2022-08-19T08:32:38.542Z,25600.00
2022-08-19T08:33:38.542Z,27200.00
2022-08-19T08:34:38.491Z,44096.00
2022-08-19T08:35:38.485Z,33632.00
2022-08-19T08:36:38.654Z,25216.00
2022-08-19T08:37:38.481Z,23168.00
2022-08-19T08:38:40.827Z,26112.00
2022-08-19T08:39:38.467Z,27008.00
2022-08-19T08:40:38.449Z,27808.00
2022-08-19T08:41:38.416Z,27232.00
2022-08-19T08:42:38.436Z,29888.00
2022-08-19T08:43:38.410Z,35168.00
2022-08-19T08:44:38.387Z,29760.00
2022-08-19T08:45:42.415Z,23744.00
2022-08-19T08:46:38.384Z,24032.00
2022-08-19T08:47:46.662Z,21120.00
2022-08-19T08:48:38.342Z,19488.00
2022-08-19T08:49:38.324Z,22784.00
2022-08-19T08:50:38.324Z,23168.00
2022-08-19T08:51:38.408Z,18240.00
2022-08-19T08:52:39.453Z,19008.00
2022-08-19T08:53:41.396Z,19200.00
2022-08-19T08:54:38.276Z,17824.00
2022-08-19T08:55:38.322Z,16020.00
2022-08-19T08:56:38.260Z,17056.00
2022-08-19T08:57:40.998Z,16992.00
2022-08-19T08:58:38.298Z,15040.00
2022-08-19T08:59:38.221Z,11656.00
2022-08-19T09:00:38.217Z,10200.00
2022-08-19T09:01:38.233Z,11796.00
2022-08-19T09:02:38.210Z,13596.00
2022-08-19T09:03:38.178Z,16640.00
2022-08-19T09:04:38.171Z,17664.00
2022-08-19T09:05:42.133Z,17248.00
2022-08-19T09:06:40.856Z,15748.00
2022-08-19T09:07:39.803Z,16832.00
2022-08-19T09:08:38.122Z,16800.00
2022-08-19T09:09:38.117Z,18112.00
2022-08-19T09:10:44.326Z,19200.00
2022-08-19T09:11:42.555Z,20896.00
2022-08-19T09:12:39.112Z,19200.00
2022-08-19T09:13:38.082Z,20928.00
2022-08-19T09:14:50.264Z,21856.00
2022-08-19T09:15:39.044Z,21824.00
2022-08-19T09:16:38.042Z,21056.00
2022-08-19T09:17:38.028Z,18496.00
2022-08-19T09:18:38.046Z,14768.00
2022-08-19T09:19:38.000Z,14220.00
2022-08-19T09:20:37.992Z,14284.00
2022-08-19T09:21:38.979Z,16864.00
2022-08-19T09:22:38.026Z,24224.00
2022-08-19T09:23:37.953Z,29152.00
2022-08-19T09:24:37.950Z,27392.00
2022-08-19T09:25:37.935Z,21728.00
2022-08-19T09:26:47.851Z,21664.00
2022-08-19T09:27:42.932Z,23360.00
2022-08-19T09:28:37.923Z,24576.00
2022-08-19T09:29:37.897Z,26400.00
2022-08-19T09:30:37.884Z,27616.00
2022-08-19T09:31:37.871Z,25344.00
2022-08-19T09:32:37.865Z,21920.00
2022-08-19T09:33:37.883Z,17568.00
2022-08-19T09:34:38.178Z,14632.00
2022-08-19T09:35:43.907Z,15984.00
2022-08-19T09:36:38.843Z,15088.00
2022-08-19T09:37:37.823Z,18048.00
2022-08-19T09:38:37.797Z,22848.00
2022-08-19T09:39:38.822Z,24096.00
2022-08-19T09:40:38.587Z,24320.00
2022-08-19T09:41:37.758Z,23008.00
2022-08-19T09:42:37.802Z,16640.00
2022-08-19T09:43:44.361Z,17888.00
2022-08-19T09:44:38.724Z,20896.00
2022-08-19T09:45:37.743Z,24224.00
2022-08-19T09:46:37.784Z,25312.00
2022-08-19T09:47:37.692Z,23456.00
2022-08-19T09:48:37.770Z,21792.00
2022-08-19T09:49:37.668Z,17696.00
2022-08-19T09:50:37.707Z,12664.00
2022-08-19T09:51:37.652Z,11944.00
2022-08-19T09:52:37.645Z,11912.00
2022-08-19T09:53:37.664Z,11624.00
2022-08-19T09:54:37.658Z,12892.00
2022-08-19T09:55:37.600Z,13076.00
2022-08-19T09:56:37.601Z,14744.00
2022-08-19T09:57:37.623Z,17152.00
2022-08-19T09:58:37.581Z,18784.00
2022-08-19T09:59:37.781Z,19840.00
2022-08-19T10:00:37.576Z,20320.00
2022-08-19T10:01:37.601Z,18720.00
2022-08-19T10:02:37.529Z,17824.00
2022-08-19T10:03:37.694Z,14812.00
2022-08-19T10:04:37.536Z,12464.00
2022-08-19T10:05:37.503Z,12588.00
2022-08-19T10:06:45.191Z,14860.00
2022-08-19T10:07:38.549Z,13344.00
2022-08-19T10:08:37.470Z,10500.00
2022-08-19T10:09:37.475Z,9092.00
2022-08-19T10:10:37.448Z,8804.00
2022-08-19T10:11:40.607Z,8644.00
2022-08-19T10:12:37.416Z,11948.00
2022-08-19T10:13:37.407Z,11104.00
2022-08-19T10:14:37.513Z,8568.00
2022-08-19T10:15:47.380Z,8844.00
2022-08-19T10:16:39.720Z,10648.00
2022-08-19T10:17:37.362Z,12488.00
2022-08-19T10:18:37.359Z,14600.00
2022-08-19T10:19:37.359Z,15912.00
2022-08-19T10:20:37.551Z,19744.00
2022-08-19T10:21:37.323Z,18432.00
2022-08-19T10:22:37.330Z,18592.00
2022-08-19T10:23:37.298Z,21824.00
2022-08-19T10:24:37.567Z,25728.00
2022-08-19T10:25:38.352Z,25088.00
2022-08-19T10:26:37.265Z,20704.00
2022-08-19T10:27:37.269Z,24608.00
2022-08-19T10:28:37.246Z,38528.00
2022-08-19T10:29:37.231Z,33184.00
2022-08-19T10:30:38.247Z,35488.00
2022-08-19T10:32:00.082Z,45376.00
2022-08-19T10:32:38.204Z,38912.00
2022-08-19T10:33:42.602Z,38176.00
2022-08-19T10:34:38.177Z,48032.00
2022-08-19T10:35:56.297Z,50432.00
2022-08-19T10:36:38.153Z,42912.00
2022-08-19T10:37:56.766Z,35744.00
2022-08-19T10:38:38.137Z,32800.00
2022-08-19T10:39:43.322Z,40768.00
2022-08-19T10:40:38.137Z,23072.00
2022-08-19T10:41:37.121Z,22816.00
2022-08-19T10:42:37.101Z,26240.00
2022-08-19T10:43:37.121Z,24224.00
2022-08-19T10:44:37.118Z,16576.00
2022-08-19T10:45:37.056Z,12236.00
2022-08-19T10:46:38.045Z,11680.00
2022-08-19T10:47:37.038Z,14728.00
2022-08-19T10:48:37.173Z,16832.00
2022-08-19T10:49:37.018Z,18432.00
2022-08-19T10:50:37.105Z,21568.00
2022-08-19T10:51:36.998Z,21024.00
2022-08-19T10:52:38.806Z,17888.00
2022-08-19T10:53:36.983Z,14704.00
2022-08-19T10:54:36.963Z,14056.00
2022-08-19T10:55:36.970Z,11180.00
2022-08-19T10:56:36.941Z,8736.00
2022-08-19T10:57:59.282Z,7316.00
2022-08-19T10:58:38.228Z,7528.00
2022-08-19T10:59:36.932Z,6944.00
2022-08-19T11:00:36.919Z,6820.00
2022-08-19T11:01:36.987Z,7268.00
2022-08-19T11:02:36.874Z,10084.00
2022-08-19T11:03:36.863Z,12140.00
2022-08-19T11:04:36.853Z,13504.00
2022-08-19T11:05:40.399Z,15348.00
2022-08-19T11:06:36.851Z,13732.00
2022-08-19T11:07:36.825Z,12576.00
2022-08-19T11:08:36.829Z,10896.00
2022-08-19T11:09:36.802Z,9088.00
2022-08-19T11:10:36.786Z,8944.00
2022-08-19T11:11:39.415Z,10200.00
2022-08-19T11:12:36.761Z,9364.00
2022-08-19T11:13:36.757Z,9188.00
2022-08-19T11:14:36.741Z,9048.00
2022-08-19T11:15:36.748Z,9072.00
2022-08-19T11:16:36.744Z,8840.00
2022-08-19T11:17:36.713Z,9928.00
2022-08-19T11:18:36.712Z,9336.00
2022-08-19T11:19:36.697Z,7536.00
2022-08-19T11:20:36.709Z,7588.00
2022-08-19T11:21:36.678Z,7564.00
2022-08-19T11:22:40.500Z,8192.00
2022-08-19T11:23:37.642Z,7620.00
2022-08-19T11:24:36.818Z,6004.00
2022-08-19T11:25:36.643Z,5184.00
2022-08-19T11:26:36.609Z,5852.00
2022-08-19T11:27:36.607Z,6176.00
2022-08-19T11:28:36.783Z,7160.00
2022-08-19T11:29:36.602Z,8088.00
2022-08-19T11:30:36.592Z,8812.00
2022-08-19T11:31:36.561Z,9004.00
2022-08-19T11:32:36.544Z,9504.00
2022-08-19T11:33:36.568Z,11996.00
2022-08-19T11:34:36.530Z,16316.00
2022-08-19T11:35:36.538Z,21184.00
2022-08-19T11:36:36.505Z,24384.00
2022-08-19T11:37:36.496Z,25568.00
2022-08-19T11:38:36.502Z,25088.00
2022-08-19T11:39:36.789Z,19072.00
2022-08-19T11:40:36.463Z,17120.00
2022-08-19T11:41:36.456Z,14220.00
2022-08-19T11:42:36.443Z,11548.00
2022-08-19T11:43:37.664Z,9980.00
2022-08-19T11:44:36.854Z,10256.00
2022-08-19T11:45:36.468Z,11796.00
2022-08-19T11:46:36.401Z,14064.00
2022-08-19T11:47:36.443Z,15440.00
2022-08-19T11:48:36.370Z,14892.00
2022-08-19T11:49:36.356Z,16240.00
2022-08-19T11:50:36.449Z,17440.00
2022-08-19T11:51:36.353Z,15436.00
2022-08-19T11:52:36.418Z,17888.00
2022-08-19T11:53:36.321Z,28608.00
2022-08-19T11:54:36.321Z,23488.00
2022-08-19T11:55:36.347Z,22432.00
2022-08-19T11:56:37.281Z,20736.00
2022-08-19T11:57:36.295Z,19424.00
2022-08-19T11:58:36.378Z,19456.00
2022-08-19T11:59:36.260Z,19552.00
2022-08-19T12:00:36.237Z,17408.00
2022-08-19T12:01:36.246Z,16220.00
2022-08-19T12:02:36.386Z,15464.00
2022-08-19T12:03:36.283Z,15028.00
2022-08-19T12:04:36.197Z,16576.00
2022-08-19T12:05:36.183Z,14460.00
2022-08-19T12:06:36.170Z,13236.00
2022-08-19T12:07:36.179Z,15700.00
2022-08-19T12:08:36.152Z,19072.00
2022-08-19T12:09:36.141Z,22720.00
2022-08-19T12:10:36.129Z,26944.00
2022-08-19T12:11:36.142Z,32672.00
2022-08-19T12:12:36.163Z,49120.00
2022-08-19T12:13:36.097Z,59744.00
2022-08-19T12:14:36.089Z,55616.00
2022-08-19T12:15:37.147Z,61920.00
2022-08-19T12:16:37.796Z,59264.00
2022-08-19T12:17:36.087Z,34336.00
2022-08-19T12:18:36.043Z,28032.00
2022-08-19T12:19:36.252Z,24928.00
2022-08-19T12:20:36.491Z,21824.00
2022-08-19T12:21:36.015Z,17760.00
2022-08-19T12:22:36.027Z,15056.00
2022-08-19T12:23:35.984Z,13640.00
2022-08-19T12:24:35.977Z,12868.00